Time;durP1;ratioP1;P1;durP2;ratioP2;P2;SDS_P1;SDS_P2;PMS_P1;PMS_P2;Temp;Humidity;BMP_temperature;BMP_pressure;BME280_temperature;BME280_humidity;BME280_pressure;Samples;Min_cycle;Max_cycle;Signal;HPM_P1;HPM_P2
2021/05/16 00:00:24;;;;;;;3.00;1.60;;;8.20;99.90;;;;;;5059037;28;20205;-36
2021/05/16 00:02:51;;;;;;;8.20;1.70;;;8.30;99.90;;;;;;5059430;28;20180;-36
2021/05/16 00:05:18;;;;;;;1.97;1.30;;;8.30;99.90;;;;;;5059681;28;20501;-37
2021/05/16 00:07:44;;;;;;;2.37;1.37;;;8.20;99.90;;;;;;5059578;28;20448;-36
2021/05/16 00:10:11;;;;;;;2.20;1.70;;;8.20;99.90;;;;;;5059782;28;20499;-36
2021/05/16 00:12:37;;;;;;;4.57;1.80;;;8.30;99.90;;;;;;5059885;28;20174;-35
2021/05/16 00:15:06;;;;;;;3.50;1.50;;;8.30;99.90;;;;;;5059161;28;20424;-36
2021/05/16 00:17:31;;;;;;;2.83;2.00;;;8.40;99.90;;;;;;5059817;28;20516;-37
2021/05/16 00:19:57;;;;;;;2.53;1.60;;;8.30;99.90;;;;;;5059385;28;20805;-37
2021/05/16 00:22:23;;;;;;;3.53;1.53;;;8.30;99.90;;;;;;5059559;28;20201;-35
2021/05/16 00:24:49;;;;;;;4.13;1.57;;;8.30;99.90;;;;;;5059766;28;20679;-35
2021/05/16 00:27:15;;;;;;;2.93;1.40;;;8.30;99.90;;;;;;5059409;28;20188;-35
2021/05/16 00:29:41;;;;;;;4.07;1.87;;;8.30;99.90;;;;;;5059594;28;20499;-35
2021/05/16 00:32:07;;;;;;;4.57;1.73;;;8.30;99.90;;;;;;5060405;28;20503;-35
2021/05/16 00:34:33;;;;;;;2.60;1.20;;;8.30;99.90;;;;;;5061641;28;20178;-36
2021/05/16 00:36:59;;;;;;;1.80;1.43;;;8.30;99.90;;;;;;5061616;28;20182;-36
2021/05/16 00:39:24;;;;;;;1.80;1.23;;;8.30;99.90;;;;;;5060811;28;20516;-36
2021/05/16 00:41:51;;;;;;;3.20;2.50;;;8.30;99.90;;;;;;5061450;28;20451;-36
2021/05/16 00:44:19;;;;;;;2.80;1.53;;;8.30;99.90;;;;;;5059785;28;20185;-35
2021/05/16 00:46:45;;;;;;;4.20;1.50;;;8.30;99.90;;;;;;5058493;28;20486;-35
2021/05/16 00:49:11;;;;;;;3.13;1.80;;;8.40;99.90;;;;;;5058875;28;21050;-36
2021/05/16 00:51:37;;;;;;;6.73;1.97;;;8.40;99.90;;;;;;5058600;28;20490;-36
2021/05/16 00:54:06;;;;;;;3.63;1.60;;;8.40;99.90;;;;;;5058855;28;20412;-37
2021/05/16 00:56:32;;;;;;;1.73;1.30;;;8.40;99.90;;;;;;5058713;28;20448;-36
2021/05/16 00:58:59;;;;;;;3.67;1.80;;;8.40;99.90;;;;;;5058568;28;20444;-36
2021/05/16 01:01:26;;;;;;;4.73;1.53;;;8.40;99.90;;;;;;5058533;28;20463;-36
2021/05/16 01:03:52;;;;;;;4.10;1.40;;;8.30;99.90;;;;;;5057968;28;20699;-35
2021/05/16 01:06:18;;;;;;;3.50;1.50;;;8.30;99.90;;;;;;5058455;28;20428;-36
2021/05/16 01:08:48;;;;;;;2.70;1.50;;;8.30;99.90;;;;;;5058864;28;20451;-36
2021/05/16 01:11:15;;;;;;;4.20;1.70;;;8.30;99.90;;;;;;5057576;28;20607;-36
2021/05/16 01:13:42;;;;;;;3.67;2.43;;;8.30;99.90;;;;;;5057625;28;20425;-37
2021/05/16 01:16:07;;;;;;;2.73;1.70;;;8.30;99.90;;;;;;5058094;28;20757;-36
2021/05/16 01:18:33;;;;;;;3.77;1.80;;;8.40;99.90;;;;;;5058147;28;20423;-36
2021/05/16 01:20:59;;;;;;;3.07;1.93;;;8.30;99.90;;;;;;5057203;28;20595;-36
2021/05/16 01:23:30;;;;;;;2.80;1.63;;;8.30;99.90;;;;;;5057491;28;20716;-35
2021/05/16 01:25:56;;;;;;;4.20;1.80;;;8.40;99.90;;;;;;5058154;28;20220;-36
2021/05/16 01:28:22;;;;;;;2.97;1.53;;;8.40;99.90;;;;;;5057315;28;20844;-36
2021/05/16 01:30:49;;;;;;;3.70;2.30;;;8.40;99.90;;;;;;5058039;28;20197;-37
2021/05/16 01:33:16;;;;;;;2.30;1.50;;;8.30;99.90;;;;;;5057673;28;20415;-36
2021/05/16 01:35:42;;;;;;;2.53;2.20;;;8.30;99.90;;;;;;5057678;28;20511;-36
2021/05/16 01:38:08;;;;;;;3.77;2.00;;;8.40;99.90;;;;;;5057650;28;20420;-36
2021/05/16 01:40:35;;;;;;;3.60;1.70;;;8.40;99.90;;;;;;5057955;28;20493;-36
2021/05/16 01:43:01;;;;;;;4.37;1.90;;;8.40;99.90;;;;;;5057847;28;20465;-36
2021/05/16 01:45:28;;;;;;;2.60;1.87;;;8.40;99.90;;;;;;5058014;28;20424;-36
2021/05/16 01:47:56;;;;;;;5.30;2.10;;;8.50;99.90;;;;;;5056568;28;20420;-36
2021/05/16 01:50:24;;;;;;;2.70;1.70;;;8.50;99.90;;;;;;5057799;28;20511;-36
2021/05/16 01:52:51;;;;;;;3.43;2.20;;;8.50;99.90;;;;;;5056664;28;20687;-36
2021/05/16 01:55:18;;;;;;;3.63;2.27;;;8.50;99.90;;;;;;5056515;28;20709;-36
2021/05/16 01:57:59;;;;;;;3.10;1.67;;;8.50;99.90;;;;;;5058195;28;20892;-36
2021/05/16 02:00:40;;;;;;;4.10;1.90;;;8.50;99.90;;;;;;5057830;28;20416;-34
2021/05/16 02:03:06;;;;;;;2.20;1.70;;;8.60;99.90;;;;;;5057396;28;20423;-43
2021/05/16 02:05:32;;;;;;;5.83;2.10;;;8.60;99.90;;;;;;5056502;28;20428;-43
2021/05/16 02:07:59;;;;;;;3.40;2.10;;;8.50;99.90;;;;;;5057880;28;20423;-43
2021/05/16 02:10:24;;;;;;;4.07;2.10;;;8.50;99.90;;;;;;5057413;28;20547;-43
2021/05/16 02:12:50;;;;;;;3.83;2.00;;;8.50;99.90;;;;;;5056609;28;20496;-43
2021/05/16 02:15:16;;;;;;;7.20;2.10;;;8.50;99.90;;;;;;5057431;28;20185;-43
2021/05/16 02:17:44;;;;;;;2.97;2.10;;;8.50;99.90;;;;;;5057021;28;20189;-42
2021/05/16 02:20:16;;;;;;;2.23;2.00;;;8.50;99.90;;;;;;5056333;28;20432;-43
2021/05/16 02:22:42;;;;;;;3.27;2.20;;;8.50;99.90;;;;;;5055148;28;20483;-44
2021/05/16 02:25:09;;;;;;;3.90;2.07;;;8.50;99.90;;;;;;5056013;28;20428;-43
2021/05/16 02:27:35;;;;;;;4.70;2.83;;;8.60;99.90;;;;;;5055187;28;20629;-43
2021/05/16 02:30:02;;;;;;;2.57;2.10;;;8.60;99.90;;;;;;5055602;28;20460;-43
2021/05/16 02:32:28;;;;;;;3.77;2.17;;;8.60;99.90;;;;;;5054977;28;20421;-43
2021/05/16 02:34:53;;;;;;;2.40;2.20;;;8.60;99.90;;;;;;5057072;28;20408;-41
2021/05/16 02:37:20;;;;;;;6.77;3.00;;;8.60;99.90;;;;;;5057149;28;20269;-44
2021/05/16 02:39:49;;;;;;;6.93;2.70;;;8.60;99.90;;;;;;5057462;28;20539;-43
2021/05/16 02:42:15;;;;;;;3.50;2.37;;;8.60;99.90;;;;;;5056976;28;20428;-44
2021/05/16 02:44:41;;;;;;;6.23;2.33;;;8.60;99.90;;;;;;5057254;28;20413;-43
2021/05/16 02:47:06;;;;;;;3.57;2.23;;;8.60;99.90;;;;;;5056937;28;20174;-43
2021/05/16 02:49:32;;;;;;;3.13;2.40;;;8.60;99.90;;;;;;5057235;28;20202;-43
2021/05/16 02:51:58;;;;;;;2.57;2.27;;;8.70;99.90;;;;;;5057161;28;20183;-43
2021/05/16 02:54:24;;;;;;;4.43;2.40;;;8.70;99.90;;;;;;5056958;28;20213;-43
2021/05/16 02:56:50;;;;;;;5.00;2.20;;;8.70;99.90;;;;;;5057232;28;20189;-43
2021/05/16 02:59:16;;;;;;;5.40;2.23;;;8.70;99.90;;;;;;5057182;28;20436;-43
2021/05/16 03:01:41;;;;;;;5.53;2.50;;;8.70;99.90;;;;;;5056749;28;20892;-44
2021/05/16 03:04:07;;;;;;;2.47;2.27;;;8.70;99.90;;;;;;5056705;28;20439;-43
2021/05/16 03:06:33;;;;;;;2.90;2.13;;;8.80;99.90;;;;;;5056818;28;20170;-44
2021/05/16 03:08:59;;;;;;;3.80;1.93;;;8.80;99.90;;;;;;5055519;28;20247;-43
2021/05/16 03:11:24;;;;;;;4.03;2.27;;;8.90;99.90;;;;;;5055767;28;20218;-44
2021/05/16 03:13:50;;;;;;;4.10;2.20;;;8.90;99.90;;;;;;5055924;28;20449;-44
2021/05/16 03:16:16;;;;;;;2.80;1.83;;;8.90;99.90;;;;;;5055709;28;20264;-44
2021/05/16 03:18:41;;;;;;;2.93;2.00;;;8.90;99.90;;;;;;5056523;28;20197;-44
2021/05/16 03:21:07;;;;;;;4.20;2.07;;;8.90;99.90;;;;;;5056689;28;20246;-44
2021/05/16 03:23:33;;;;;;;2.90;1.80;;;8.90;99.90;;;;;;5056215;28;20240;-43
2021/05/16 03:26:01;;;;;;;5.43;1.70;;;8.90;99.90;;;;;;5057068;28;20243;-44
2021/05/16 03:28:30;;;;;;;3.40;1.70;;;8.90;99.90;;;;;;5056518;28;20177;-44
2021/05/16 03:30:56;;;;;;;2.80;1.83;;;8.90;99.90;;;;;;5056430;28;20586;-44
2021/05/16 03:33:22;;;;;;;2.50;1.70;;;8.90;99.90;;;;;;5056593;28;20428;-44
2021/05/16 03:35:49;;;;;;;3.70;1.80;;;8.90;99.90;;;;;;5059859;28;20408;-44
2021/05/16 03:38:15;;;;;;;2.13;1.80;;;8.90;99.90;;;;;;5060166;28;20174;-43
2021/05/16 03:40:41;;;;;;;3.53;1.50;;;8.90;99.90;;;;;;5060430;28;20413;-42
2021/05/16 03:43:06;;;;;;;3.27;1.73;;;8.80;99.90;;;;;;5059820;28;20442;-44
2021/05/16 03:45:32;;;;;;;5.20;2.20;;;8.90;99.90;;;;;;5060247;28;20248;-42
2021/05/16 03:47:58;;;;;;;2.30;1.90;;;8.80;99.90;;;;;;5060267;28;20209;-44
2021/05/16 03:50:24;;;;;;;2.10;1.77;;;8.80;99.90;;;;;;5059642;28;20475;-44
2021/05/16 03:52:49;;;;;;;2.10;1.90;;;8.80;99.90;;;;;;5060196;28;20642;-43
2021/05/16 03:55:16;;;;;;;4.73;2.10;;;8.80;99.90;;;;;;5060152;28;20452;-43
2021/05/16 03:57:42;;;;;;;2.97;1.63;;;8.80;99.90;;;;;;5059630;28;20184;-43
2021/05/16 04:00:09;;;;;;;2.50;2.10;;;8.90;99.90;;;;;;5059733;28;20412;-44
2021/05/16 04:02:35;;;;;;;2.60;2.10;;;8.90;99.90;;;;;;5060302;28;20190;-44
2021/05/16 04:05:00;;;;;;;3.10;2.40;;;8.80;99.90;;;;;;5060042;28;20423;-44
2021/05/16 04:07:26;;;;;;;2.53;1.70;;;8.80;99.90;;;;;;5060227;28;20170;-42
2021/05/16 04:09:52;;;;;;;2.30;1.80;;;8.80;99.90;;;;;;5059150;28;20213;-43
2021/05/16 04:12:17;;;;;;;3.33;1.80;;;8.80;99.90;;;;;;5060464;28;20256;-44
2021/05/16 04:14:45;;;;;;;3.53;2.00;;;8.90;99.90;;;;;;5059398;28;20166;-42
2021/05/16 04:17:11;;;;;;;1.80;1.70;;;8.90;99.90;;;;;;5059624;28;20178;-44
2021/05/16 04:19:37;;;;;;;2.27;1.93;;;8.90;99.90;;;;;;5058571;28;20439;-44
2021/05/16 04:22:03;;;;;;;2.37;1.90;;;8.90;99.90;;;;;;5058590;28;20416;-44
2021/05/16 04:24:29;;;;;;;2.70;1.77;;;8.90;99.90;;;;;;5059179;28;20530;-43
2021/05/16 04:26:54;;;;;;;5.57;2.10;;;8.80;99.90;;;;;;5059328;28;20432;-44
2021/05/16 04:29:20;;;;;;;3.70;1.77;;;8.80;99.90;;;;;;5059395;28;20629;-44
2021/05/16 04:31:46;;;;;;;3.10;2.10;;;8.90;99.90;;;;;;5059175;28;20489;-43
2021/05/16 04:34:11;;;;;;;2.57;1.60;;;8.80;99.90;;;;;;5059430;28;20269;-44
2021/05/16 04:36:37;;;;;;;4.37;2.00;;;8.80;99.90;;;;;;5059097;28;20264;-44
2021/05/16 04:39:04;;;;;;;3.50;1.80;;;8.80;99.90;;;;;;5059307;28;20174;-42
2021/05/16 04:41:29;;;;;;;2.30;1.30;;;8.90;99.90;;;;;;5059521;28;20184;-44
2021/05/16 04:43:55;;;;;;;3.13;1.63;;;8.90;99.90;;;;;;5059303;28;20742;-44
2021/05/16 04:46:21;;;;;;;2.03;1.30;;;8.90;99.90;;;;;;5058178;28;20247;-44
2021/05/16 04:48:46;;;;;;;2.07;1.43;;;8.90;99.90;;;;;;5059004;28;20201;-43
2021/05/16 04:51:12;;;;;;;2.63;1.43;;;8.90;99.90;;;;;;5058076;28;20635;-44
2021/05/16 04:53:38;;;;;;;2.47;1.30;;;8.90;99.90;;;;;;5059111;28;20174;-43
2021/05/16 04:56:04;;;;;;;3.10;1.80;;;8.90;99.90;;;;;;5058912;28;20479;-44
2021/05/16 04:58:30;;;;;;;2.60;1.33;;;9.00;99.90;;;;;;5058740;28;20264;-44
2021/05/16 05:00:56;;;;;;;1.50;1.37;;;9.00;99.90;;;;;;5058736;28;20543;-43
2021/05/16 05:03:24;;;;;;;2.90;1.97;;;9.00;99.90;;;;;;5058527;28;20514;-44
2021/05/16 05:05:53;;;;;;;3.63;1.50;;;9.10;99.90;;;;;;5058461;28;20170;-44
2021/05/16 05:08:22;;;;;;;3.40;1.57;;;9.10;99.90;;;;;;5057728;28;20447;-43
2021/05/16 05:10:48;;;;;;;2.20;1.37;;;9.10;99.90;;;;;;5058401;28;20464;-44
2021/05/16 05:13:14;;;;;;;4.17;1.70;;;9.10;99.90;;;;;;5058842;28;20501;-44
2021/05/16 05:15:40;;;;;;;3.20;1.30;;;9.10;99.90;;;;;;5058724;28;20404;-44
2021/05/16 05:18:06;;;;;;;1.60;1.43;;;9.20;99.90;;;;;;5058582;28;20428;-44
2021/05/16 05:20:32;;;;;;;3.73;1.40;;;9.30;99.90;;;;;;5058109;28;20203;-44
2021/05/16 05:22:58;;;;;;;1.70;1.10;;;9.30;99.90;;;;;;5058112;28;20248;-44
2021/05/16 05:25:24;;;;;;;2.17;1.50;;;9.30;99.90;;;;;;5058220;28;20416;-44
2021/05/16 05:27:49;;;;;;;1.70;1.20;;;9.30;99.90;;;;;;5058295;28;20529;-43
2021/05/16 05:30:15;;;;;;;2.30;1.20;;;9.30;99.90;;;;;;5058227;28;20560;-43
2021/05/16 05:32:41;;;;;;;2.30;1.43;;;9.30;99.90;;;;;;5058487;28;20205;-44
2021/05/16 05:35:07;;;;;;;1.50;1.20;;;9.40;99.90;;;;;;5057715;28;20918;-43
2021/05/16 05:37:33;;;;;;;1.37;0.97;;;9.60;99.90;;;;;;5057950;28;20185;-43
2021/05/16 05:39:59;;;;;;;1.97;1.20;;;9.70;99.90;;;;;;5057824;28;20493;-44
2021/05/16 05:42:26;;;;;;;2.60;1.13;;;9.70;99.90;;;;;;5058134;28;20185;-44
2021/05/16 05:44:52;;;;;;;1.50;1.03;;;9.70;99.90;;;;;;5057843;28;20174;-44
2021/05/16 05:47:18;;;;;;;3.73;1.03;;;9.70;99.90;;;;;;5052222;28;20475;-43
2021/05/16 05:49:44;;;;;;;2.43;1.27;;;9.80;99.90;;;;;;5038523;28;20426;-43
2021/05/16 05:52:09;;;;;;;3.10;1.10;;;9.90;99.90;;;;;;5038198;28;20186;-44
2021/05/16 05:54:37;;;;;;;1.47;0.83;;;9.90;99.90;;;;;;5038103;28;20162;-44
2021/05/16 05:57:03;;;;;;;2.87;1.40;;;9.70;99.90;;;;;;5037335;28;20200;-43
2021/05/16 05:59:30;;;;;;;2.30;1.17;;;9.80;99.90;;;;;;5037107;28;20436;-44
2021/05/16 06:01:56;;;;;;;3.00;1.50;;;10.00;99.90;;;;;;5037910;28;20504;-44
2021/05/16 06:04:22;;;;;;;4.07;1.33;;;10.20;99.90;;;;;;5037671;28;20493;-44
2021/05/16 06:06:47;;;;;;;2.37;1.13;;;10.50;99.90;;;;;;5036711;28;20175;-42
2021/05/16 06:09:13;;;;;;;1.57;1.10;;;10.50;99.90;;;;;;5036523;28;20175;-44
2021/05/16 06:11:39;;;;;;;1.30;0.93;;;10.50;99.90;;;;;;5037019;28;20289;-42
2021/05/16 06:14:04;;;;;;;2.93;1.20;;;10.60;99.90;;;;;;5036799;28;20198;-43
2021/05/16 06:16:30;;;;;;;1.50;1.00;;;10.70;99.80;;;;;;5036311;28;20175;-48
2021/05/16 06:18:57;;;;;;;1.60;0.90;;;10.80;99.30;;;;;;5037295;28;20174;-43
2021/05/16 06:21:23;;;;;;;4.13;1.37;;;10.90;99.10;;;;;;5037648;28;20231;-42
2021/05/16 06:24:10;;;;;;;2.13;1.47;;;10.90;99.10;;;;;;5036161;28;20806;-43
2021/05/16 06:26:36;;;;;;;1.90;1.10;;;10.90;98.50;;;;;;5036241;28;20517;-43
2021/05/16 06:29:06;;;;;;;3.23;1.30;;;11.00;98.60;;;;;;5069584;28;20471;-42
2021/05/16 06:31:32;;;;;;;3.53;1.17;;;10.90;98.70;;;;;;5036984;28;20472;-42
2021/05/16 06:33:58;;;;;;;1.47;0.90;;;11.20;98.20;;;;;;5036389;28;20441;-43
2021/05/16 06:36:24;;;;;;;1.87;1.00;;;11.10;97.90;;;;;;5037561;28;20416;-43
2021/05/16 06:38:50;;;;;;;2.80;1.20;;;11.00;97.80;;;;;;5037552;28;20561;-43
2021/05/16 06:41:16;;;;;;;2.27;0.90;;;11.20;97.90;;;;;;5037613;28;20416;-43
2021/05/16 06:43:42;;;;;;;2.70;1.13;;;11.60;97.40;;;;;;5038076;28;20436;-43
2021/05/16 06:46:07;;;;;;;2.70;1.00;;;11.60;96.90;;;;;;5037117;28;20704;-43
2021/05/16 06:48:34;;;;;;;3.00;1.00;;;11.80;96.20;;;;;;5037486;28;20425;-43
2021/05/16 06:51:02;;;;;;;1.53;0.80;;;12.20;96.50;;;;;;5037341;28;20453;-44
2021/05/16 06:53:28;;;;;;;1.03;0.67;;;12.60;95.70;;;;;;5037206;28;20421;-43
2021/05/16 06:55:55;;;;;;;2.17;0.80;;;12.40;95.30;;;;;;5037006;28;20787;-42
2021/05/16 06:58:20;;;;;;;2.07;0.70;;;12.30;95.50;;;;;;5037650;28;20175;-43
2021/05/16 07:00:46;;;;;;;3.20;1.20;;;12.20;95.90;;;;;;5036047;28;20423;-44
2021/05/16 07:03:12;;;;;;;1.13;0.93;;;12.30;96.00;;;;;;5034847;28;20217;-43
2021/05/16 07:05:37;;;;;;;3.50;1.23;;;12.30;95.50;;;;;;5034980;28;20439;-44
2021/05/16 07:08:03;;;;;;;1.60;0.70;;;12.30;95.60;;;;;;5035121;28;20186;-44
2021/05/16 07:10:29;;;;;;;2.40;1.00;;;12.30;95.70;;;;;;5038381;28;20308;-43
2021/05/16 07:12:54;;;;;;;3.10;1.30;;;12.50;94.60;;;;;;5039285;28;20264;-43
2021/05/16 07:15:20;;;;;;;4.73;0.90;;;12.60;94.80;;;;;;5039768;28;20495;-44
2021/05/16 07:17:48;;;;;;;1.97;0.70;;;12.60;94.10;;;;;;5040826;28;20175;-42
2021/05/16 07:20:14;;;;;;;1.70;0.90;;;12.70;94.20;;;;;;5041646;28;20233;-44
2021/05/16 07:22:39;;;;;;;2.03;0.87;;;12.50;94.00;;;;;;5040523;28;20460;-43
2021/05/16 07:25:06;;;;;;;3.67;1.40;;;12.80;94.30;;;;;;5041253;28;20421;-44
2021/05/16 07:27:31;;;;;;;1.97;0.90;;;12.90;93.70;;;;;;5041079;28;20490;-44
2021/05/16 07:29:57;;;;;;;1.23;0.80;;;13.00;93.20;;;;;;5040895;28;20440;-43
2021/05/16 07:32:22;;;;;;;1.60;0.77;;;13.00;93.10;;;;;;5039210;28;20265;-41
2021/05/16 07:34:48;;;;;;;5.57;1.00;;;12.90;93.20;;;;;;5038996;28;20273;-43
2021/05/16 07:37:14;;;;;;;2.43;1.30;;;12.70;93.90;;;;;;5039771;28;20186;-44
2021/05/16 07:39:39;;;;;;;2.90;1.10;;;12.70;93.80;;;;;;5038207;28;20213;-42
2021/05/16 07:42:05;;;;;;;2.33;1.10;;;12.70;93.80;;;;;;5039570;28;20190;-43
2021/05/16 07:44:31;;;;;;;3.87;1.10;;;12.70;93.30;;;;;;5039462;28;20274;-43
2021/05/16 07:46:57;;;;;;;2.20;0.97;;;12.80;92.90;;;;;;5040080;28;20464;-42
2021/05/16 07:49:23;;;;;;;3.53;1.27;;;13.50;92.60;;;;;;5040404;28;20914;-44
2021/05/16 07:51:48;;;;;;;3.50;1.20;;;13.90;91.20;;;;;;5040157;28;20662;-43
2021/05/16 07:54:14;;;;;;;4.43;1.53;;;13.90;91.30;;;;;;5040108;28;20426;-44
2021/05/16 07:56:40;;;;;;;3.10;1.30;;;14.10;92.80;;;;;;5040358;28;20174;-44
2021/05/16 07:59:05;;;;;;;2.30;1.20;;;14.30;92.90;;;;;;5040021;28;20248;-44
2021/05/16 08:01:31;;;;;;;2.00;1.10;;;14.20;93.00;;;;;;5040062;28;20610;-44
2021/05/16 08:04:07;;;;;;;2.57;1.30;;;13.50;92.80;;;;;;5040298;28;20178;-44
2021/05/16 08:06:32;;;;;;;4.43;1.33;;;13.30;94.40;;;;;;5040071;28;20169;-44
2021/05/16 08:08:58;;;;;;;4.40;1.30;;;12.80;94.10;;;;;;5039414;28;20448;-42
2021/05/16 08:11:24;;;;;;;2.73;1.40;;;12.70;96.20;;;;;;5040170;28;20603;-44
2021/05/16 08:13:51;;;;;;;3.90;1.30;;;12.90;97.20;;;;;;5040052;28;20261;-42
2021/05/16 08:16:16;;;;;;;2.97;1.27;;;13.40;94.80;;;;;;5039314;28;20265;-48
2021/05/16 08:18:42;;;;;;;5.10;1.67;;;13.10;93.50;;;;;;5040216;28;20522;-46
2021/05/16 08:21:08;;;;;;;4.40;1.20;;;13.50;94.00;;;;;;5039907;28;20206;-43
2021/05/16 08:23:33;;;;;;;3.60;1.20;;;13.10;92.00;;;;;;5038285;28;20242;-43
2021/05/16 08:26:01;;;;;;;2.80;1.33;;;13.20;91.70;;;;;;5040245;28;20178;-41
2021/05/16 08:28:26;;;;;;;4.60;1.33;;;13.40;91.10;;;;;;5039557;28;20187;-42
2021/05/16 08:30:52;;;;;;;3.43;1.57;;;13.50;90.90;;;;;;5038754;28;20475;-46
2021/05/16 08:33:18;;;;;;;4.73;1.70;;;13.80;90.90;;;;;;5037181;28;20197;-44
2021/05/16 08:35:44;;;;;;;5.20;1.33;;;13.90;91.00;;;;;;5038672;28;20414;-43
2021/05/16 08:38:10;;;;;;;5.20;2.00;;;14.10;88.40;;;;;;5054446;28;20201;-42
2021/05/16 08:40:36;;;;;;;4.07;1.33;;;14.10;88.80;;;;;;5071319;28;20174;-43
2021/05/16 08:43:02;;;;;;;2.60;1.37;;;14.20;87.90;;;;;;5037168;28;20198;-44
2021/05/16 08:45:29;;;;;;;3.40;1.50;;;13.80;87.60;;;;;;5038746;28;20703;-44
2021/05/16 08:47:56;;;;;;;3.77;1.73;;;14.00;89.60;;;;;;5038972;28;20436;-44
2021/05/16 08:50:21;;;;;;;3.80;1.50;;;14.90;89.20;;;;;;5037916;28;20914;-44
2021/05/16 08:52:47;;;;;;;3.10;1.30;;;15.10;86.70;;;;;;5038965;28;20465;-43
2021/05/16 08:55:14;;;;;;;3.23;1.30;;;14.60;84.70;;;;;;5039197;28;20587;-43
2021/05/16 08:57:41;;;;;;;6.07;1.73;;;14.80;86.10;;;;;;5038694;28;20640;-45
2021/05/16 09:00:18;;;;;;;6.07;1.80;;;15.00;84.20;;;;;;5069769;28;20428;-45
2021/05/16 09:03:03;;;;;;;3.10;1.47;;;15.10;83.20;;;;;;5037162;28;20491;-45
2021/05/16 09:05:36;;;;;;;5.47;1.10;;;14.90;83.50;;;;;;5037955;28;20402;-45
2021/05/16 09:08:27;;;;;;;5.53;1.90;;;14.70;83.50;;;;;;5036921;28;20723;-44
2021/05/16 09:10:57;;;;;;;6.37;1.80;;;14.40;84.10;;;;;;5036171;28;20469;-44
2021/05/16 09:13:32;;;;;;;4.40;1.40;;;14.20;83.30;;;;;;5038540;28;20437;-44
2021/05/16 09:16:12;;;;;;;4.80;1.47;;;14.20;85.50;;;;;;5038666;28;20444;-45
2021/05/16 09:18:50;;;;;;;6.47;1.20;;;14.70;84.50;;;;;;5038760;28;20763;-44
2021/05/16 09:21:38;;;;;;;5.80;1.57;;;14.90;84.20;;;;;;5038645;28;20715;-45
2021/05/16 09:24:07;;;;;;;5.53;1.50;;;14.70;82.30;;;;;;5038202;28;20539;-44
2021/05/16 09:26:37;;;;;;;3.57;1.20;;;15.00;82.40;;;;;;5037693;28;20417;-44
2021/05/16 09:29:44;;;;;;;3.43;1.47;;;15.10;78.50;;;;;;5037922;28;20448;-42
2021/05/16 09:32:10;;;;;;;5.20;3.23;;;16.20;77.80;;;;;;5035003;28;20424;-44
2021/05/16 09:34:38;;;;;;;3.73;1.43;;;16.90;74.00;;;;;;5035589;28;20811;-45
2021/05/16 09:37:09;;;;;;;5.53;1.73;;;17.80;73.70;;;;;;5035308;28;20174;-44
2021/05/16 09:39:35;;;;;;;9.20;2.47;;;17.80;70.80;;;;;;5034109;28;20870;-44
2021/05/16 09:42:09;;;;;;;3.60;1.50;;;17.90;69.30;;;;;;5035659;28;20924;-43
2021/05/16 09:44:45;;;;;;;7.20;1.63;;;18.10;68.90;;;;;;5035541;28;20712;-44
2021/05/16 09:47:21;;;;;;;4.80;1.73;;;18.30;67.50;;;;;;5035745;28;20486;-44
2021/05/16 09:49:50;;;;;;;8.57;2.00;;;17.70;66.20;;;;;;5036427;28;20404;-45
2021/05/16 09:52:30;;;;;;;3.70;1.50;;;17.90;64.10;;;;;;5037799;28;20704;-45
2021/05/16 09:55:09;;;;;;;4.03;1.43;;;17.90;64.20;;;;;;5037783;28;20507;-43
2021/05/16 09:57:49;;;;;;;2.53;1.30;;;18.40;65.50;;;;;;5037369;28;20444;-44
2021/05/16 10:00:17;;;;;;;4.13;1.60;;;18.90;60.20;;;;;;5037181;28;20699;-44
2021/05/16 10:02:43;;;;;;;2.90;1.27;;;17.70;61.10;;;;;;5069877;28;20445;-44
2021/05/16 10:05:10;;;;;;;2.57;1.23;;;17.70;62.50;;;;;;5068805;28;20414;-44
2021/05/16 10:07:38;;;;;;;2.97;1.40;;;17.40;62.80;;;;;;5036367;28;20457;-44
2021/05/16 10:10:04;;;;;;;6.30;2.40;;;17.10;63.40;;;;;;5036462;28;20685;-44
2021/05/16 10:12:30;;;;;;;3.63;1.70;;;17.50;64.00;;;;;;5069015;28;20437;-44
2021/05/16 10:15:19;;;;;;;2.10;1.00;;;17.80;63.30;;;;;;5037628;28;20410;-44
2021/05/16 10:17:50;;;;;;;2.03;1.13;;;17.30;63.00;;;;;;5019675;28;20183;-44
2021/05/16 10:20:26;;;;;;;3.30;1.50;;;18.00;61.20;;;;;;5036799;28;20421;-44
2021/05/16 10:22:53;;;;;;;3.27;1.57;;;17.60;59.50;;;;;;5037190;28;20497;-44
2021/05/16 10:25:43;;;;;;;3.47;1.20;;;17.80;60.20;;;;;;5036650;28;20413;-44
2021/05/16 10:28:15;;;;;;;2.50;1.30;;;17.50;60.20;;;;;;5049276;28;20460;-44
2021/05/16 10:31:01;;;;;;;4.07;1.20;;;17.50;60.00;;;;;;5056811;28;20542;-44
2021/05/16 10:33:45;;;;;;;3.90;1.80;;;17.50;60.30;;;;;;5056624;28;20427;-44
2021/05/16 10:36:10;;;;;;;4.40;1.60;;;17.30;63.30;;;;;;5055625;28;20424;-45
2021/05/16 10:38:57;;;;;;;3.20;1.40;;;17.40;62.90;;;;;;5057528;28;20439;-43
2021/05/16 10:41:24;;;;;;;2.53;1.47;;;18.00;62.90;;;;;;5056737;28;20189;-44
2021/05/16 10:43:50;;;;;;;2.87;1.40;;;19.00;58.90;;;;;;5056006;28;20436;-44
2021/05/16 10:46:37;;;;;;;2.97;1.37;;;20.20;58.80;;;;;;5055372;28;20427;-44
2021/05/16 10:49:24;;;;;;;3.40;1.40;;;21.30;56.80;;;;;;5056172;28;20432;-44
2021/05/16 10:51:50;;;;;;;4.50;2.00;;;21.30;55.30;;;;;;5055177;28;20529;-44
2021/05/16 10:54:33;;;;;;;4.07;1.43;;;22.40;54.50;;;;;;5056459;28;20436;-44
2021/05/16 10:57:23;;;;;;;3.27;1.40;;;21.60;50.60;;;;;;5055183;28;20734;-44
2021/05/16 10:59:50;;;;;;;4.63;1.53;;;22.70;50.20;;;;;;5055750;28;20397;-44
2021/05/16 11:02:54;;;;;;;2.57;0.97;;;22.90;48.30;;;;;;5056477;28;20507;-43
2021/05/16 11:05:52;;;;;;;2.77;1.00;;;22.20;46.80;;;;;;5057137;28;20435;-42
2021/05/16 11:08:18;;;;;;;1.50;0.90;;;22.60;46.70;;;;;;5057201;28;20419;-44
2021/05/16 11:10:50;;;;;;;2.63;1.20;;;23.40;46.30;;;;;;5057180;28;20521;-44
2021/05/16 11:13:27;;;;;;;1.83;1.10;;;22.90;44.80;;;;;;5056108;28;20506;-43
2021/05/16 11:15:54;;;;;;;5.07;1.30;;;22.70;45.40;;;;;;5057347;28;20423;-44
2021/05/16 11:18:22;;;;;;;3.23;1.67;;;23.30;45.20;;;;;;5056419;28;20424;-44
2021/05/16 11:20:55;;;;;;;4.63;1.07;;;24.20;44.30;;;;;;5056429;28;20843;-43
2021/05/16 11:23:22;;;;;;;3.33;1.20;;;24.90;43.30;;;;;;5055684;28;20546;-45
2021/05/16 11:25:55;;;;;;;2.37;0.93;;;24.60;42.70;;;;;;5055283;28;20420;-38
2021/05/16 11:28:25;;;;;;;1.67;0.87;;;25.10;42.10;;;;;;5055900;28;20519;-38
2021/05/16 11:30:53;;;;;;;1.97;1.17;;;26.30;42.00;;;;;;5055614;28;20466;-38
2021/05/16 11:33:39;;;;;;;3.50;1.10;;;25.50;41.00;;;;;;5057036;28;20702;-38
2021/05/16 11:36:05;;;;;;;3.50;1.47;;;25.30;40.10;;;;;;5056678;28;20419;-37
2021/05/16 11:38:33;;;;;;;2.03;1.10;;;24.50;41.50;;;;;;5056653;28;20467;-39
2021/05/16 11:40:59;;;;;;;2.40;1.20;;;24.40;40.00;;;;;;5057316;28;20822;-37
2021/05/16 11:43:33;;;;;;;2.00;1.23;;;25.30;39.30;;;;;;5057068;28;20420;-39
2021/05/16 11:46:01;;;;;;;2.90;1.20;;;26.00;37.90;;;;;;5057096;28;20429;-38
2021/05/16 11:48:31;;;;;;;3.00;1.20;;;26.30;38.20;;;;;;5056312;28;20434;-37
2021/05/16 11:51:17;;;;;;;3.63;1.60;;;25.50;38.20;;;;;;5057609;28;20467;-37
2021/05/16 11:53:59;;;;;;;2.50;1.30;;;24.40;38.70;;;;;;5058249;28;20423;-37
2021/05/16 11:56:30;;;;;;;3.73;1.10;;;25.30;38.60;;;;;;5059693;28;20419;-39
2021/05/16 11:58:58;;;;;;;2.70;1.40;;;25.90;38.50;;;;;;5060740;28;20439;-38
2021/05/16 12:01:25;;;;;;;1.90;1.07;;;25.90;37.70;;;;;;5059928;28;20557;-38
2021/05/16 12:04:05;;;;;;;2.40;1.20;;;24.70;37.70;;;;;;5060312;28;20558;-42
2021/05/16 12:06:32;;;;;;;3.20;1.10;;;23.80;39.30;;;;;;5044395;28;20412;-38
2021/05/16 12:09:05;;;;;;;2.90;1.23;;;22.70;40.60;;;;;;5043385;28;20830;-37
2021/05/16 12:11:34;;;;;;;3.90;1.73;;;22.60;41.30;;;;;;5060615;28;20729;-37
2021/05/16 12:14:12;;;;;;;5.93;1.93;;;22.30;41.70;;;;;;5057437;28;20500;-38
2021/05/16 12:16:40;;;;;;;4.97;1.50;;;22.10;42.70;;;;;;5058801;28;20427;-37
2021/05/16 12:19:10;;;;;;;3.80;1.57;;;22.40;42.80;;;;;;5040202;28;20497;-37
2021/05/16 12:21:36;;;;;;;2.60;1.33;;;22.00;42.20;;;;;;5057411;28;20428;-39
2021/05/16 12:24:09;;;;;;;2.67;1.40;;;21.60;43.00;;;;;;5055844;28;20514;-38
2021/05/16 12:26:38;;;;;;;4.07;1.30;;;21.00;43.00;;;;;;5059588;28;20416;-38
2021/05/16 12:29:05;;;;;;;2.87;1.23;;;20.90;44.00;;;;;;5057976;28;20432;-36
2021/05/16 12:31:32;;;;;;;3.27;1.30;;;20.30;44.00;;;;;;5040826;28;20784;-38
2021/05/16 12:34:05;;;;;;;3.37;1.27;;;19.50;44.30;;;;;;5041325;28;20510;-37
2021/05/16 12:37:04;;;;;;;2.00;1.00;;;18.80;45.30;;;;;;5059369;28;20416;-37
2021/05/16 12:39:37;;;;;;;3.60;1.37;;;18.70;46.30;;;;;;5040302;28;20587;-36
2021/05/16 12:42:05;;;;;;;3.20;1.23;;;18.30;46.70;;;;;;5056973;28;20416;-36
2021/05/16 12:44:31;;;;;;;4.30;1.33;;;17.90;47.10;;;;;;5057893;28;20483;-37
2021/05/16 12:46:59;;;;;;;3.37;1.47;;;18.00;48.00;;;;;;5059016;28;20455;-37
2021/05/16 12:49:27;;;;;;;3.03;0.83;;;18.10;47.90;;;;;;5060281;28;20178;-37
2021/05/16 12:52:03;;;;;;;4.23;1.17;;;18.00;47.80;;;;;;5059767;28;20532;-36
2021/05/16 12:54:30;;;;;;;2.47;1.00;;;17.80;47.60;;;;;;5059488;28;20504;-35
2021/05/16 12:57:02;;;;;;;4.97;1.17;;;17.70;47.90;;;;;;5059125;28;20400;-37